Time;durP1;ratioP1;P1;durP2;ratioP2;P2;SDS_P1;SDS_P2;PMS_P1;PMS_P2;Temp;Humidity;BMP_temperature;BMP_pressure;BME280_temperature;BME280_humidity;BME280_pressure;Samples;Min_cycle;Max_cycle;Signal;HPM_P1;HPM_P2
2022/04/23 00:01:14;;;;;;;14.77;10.20;;;12.20;99.90;;;;;;5033835;28;20044;-51
2022/04/23 00:03:40;;;;;;;16.80;10.85;;;12.10;99.90;;;;;;5024879;28;20049;-53
2022/04/23 00:06:06;;;;;;;17.52;10.93;;;12.00;99.90;;;;;;5010828;28;20084;-52
2022/04/23 00:08:32;;;;;;;19.27;10.82;;;12.00;99.90;;;;;;5026624;28;20041;-53
2022/04/23 00:10:59;;;;;;;17.20;11.20;;;12.00;99.90;;;;;;5029276;28;20056;-52
2022/04/23 00:13:25;;;;;;;15.73;11.40;;;11.90;99.90;;;;;;5005453;28;20063;-52
2022/04/23 00:15:51;;;;;;;17.77;11.00;;;11.90;99.90;;;;;;5030374;28;20049;-53
2022/04/23 00:18:18;;;;;;;19.75;11.93;;;11.90;99.90;;;;;;5019799;28;20052;-53
2022/04/23 00:20:46;;;;;;;21.05;11.93;;;12.00;99.90;;;;;;5009523;28;20052;-52
2022/04/23 00:23:12;;;;;;;16.50;11.68;;;12.00;99.90;;;;;;5024719;28;20041;-53
2022/04/23 00:25:39;;;;;;;19.13;12.23;;;11.90;99.90;;;;;;5026442;28;20060;-53
2022/04/23 00:28:05;;;;;;;16.83;11.50;;;12.00;99.90;;;;;;5013180;28;20048;-53
2022/04/23 00:30:31;;;;;;;18.70;12.80;;;11.90;99.90;;;;;;5029952;28;20045;-53
2022/04/23 00:33:03;;;;;;;22.40;13.50;;;11.90;99.90;;;;;;5023201;28;20245;-53
2022/04/23 00:35:29;;;;;;;;;;;11.90;99.90;;;;;;5030960;28;20611;-53
2022/04/23 00:37:55;;;;;;;16.58;12.80;;;11.80;99.90;;;;;;5022959;28;20021;-53
2022/04/23 00:40:24;;;;;;;19.10;12.35;;;11.80;99.90;;;;;;5031453;28;20084;-53
2022/04/23 00:45:24;;;;;;;18.20;12.60;;;11.70;99.90;;;;;;5050666;28;20119;-50
2022/04/23 00:47:50;;;;;;;18.10;14.30;;;11.70;99.90;;;;;;5046249;28;20087;-50
2022/04/23 00:50:21;;;;;;;19.73;13.82;;;11.80;99.90;;;;;;5044019;28;20124;-49
2022/04/23 00:52:51;;;;;;;18.73;14.30;;;11.70;99.90;;;;;;5067508;28;20370;-51
2022/04/23 00:55:18;;;;;;;19.60;14.25;;;11.70;99.90;;;;;;5041679;28;20438;-53
2022/04/23 00:57:44;;;;;;;17.17;12.60;;;11.60;99.90;;;;;;5041554;28;20057;-51
2022/04/23 01:00:11;;;;;;;18.45;14.05;;;11.70;99.90;;;;;;5042383;28;20044;-52
2022/04/23 01:02:36;;;;;;;19.00;13.40;;;11.60;99.90;;;;;;5050195;28;20029;-50
2022/04/23 01:05:03;;;;;;;20.63;14.57;;;11.50;99.90;;;;;;5034453;28;20176;-54
2022/04/23 01:07:29;;;;;;;20.55;14.50;;;11.50;99.90;;;;;;5030669;28;20037;-53
2022/04/23 01:09:55;;;;;;;18.33;14.48;;;11.60;99.90;;;;;;5032900;28;20383;-54
2022/04/23 01:12:21;;;;;;;20.90;14.88;;;11.50;99.90;;;;;;5032598;28;20042;-54
2022/04/23 01:14:57;;;;;;;19.65;13.85;;;11.50;99.90;;;;;;5031059;28;20038;-52
2022/04/23 01:17:22;;;;;;;19.00;13.88;;;11.50;99.90;;;;;;5033415;28;20056;-53
2022/04/23 01:19:48;;;;;;;20.65;14.48;;;11.50;99.90;;;;;;5034253;28;20487;-52
2022/04/23 01:22:14;;;;;;;19.50;13.85;;;11.50;99.90;;;;;;5045945;28;20570;-51
2022/04/23 01:24:39;;;;;;;20.05;14.40;;;11.50;99.90;;;;;;5054827;28;20037;-50
2022/04/23 01:27:05;;;;;;;17.67;12.40;;;11.60;99.90;;;;;;5044528;28;20029;-52
2022/04/23 01:29:31;;;;;;;19.73;13.35;;;11.60;99.90;;;;;;5034590;28;20045;-51
2022/04/23 01:31:56;;;;;;;21.67;14.55;;;11.50;99.90;;;;;;5034925;28;20092;-50
2022/04/23 01:34:22;;;;;;;19.52;14.80;;;11.60;99.90;;;;;;5046267;28;20033;-54
2022/04/23 01:36:47;;;;;;;20.80;15.60;;;11.60;99.90;;;;;;5054547;28;20045;-50
2022/04/23 01:39:13;;;;;;;20.00;13.77;;;11.50;99.90;;;;;;5054364;28;20045;-48
2022/04/23 01:41:38;;;;;;;18.55;13.40;;;11.50;99.90;;;;;;5033871;28;20068;-48
2022/04/23 01:44:04;;;;;;;21.45;14.95;;;11.50;99.90;;;;;;5043288;28;20467;-50
2022/04/23 01:46:29;;;;;;;21.05;15.80;;;11.40;99.90;;;;;;5045350;28;20033;-49
2022/04/23 01:48:55;;;;;;;21.67;15.13;;;11.40;99.90;;;;;;5053904;28;20124;-49
2022/04/23 01:51:23;;;;;;;18.67;13.77;;;11.30;99.90;;;;;;5054180;28;20041;-50
2022/04/23 01:53:49;;;;;;;21.05;15.27;;;11.30;99.90;;;;;;5054245;28;20041;-50
2022/04/23 01:56:14;;;;;;;19.05;14.55;;;11.30;99.90;;;;;;5034772;28;20112;-50
2022/04/23 01:58:40;;;;;;;19.30;14.68;;;11.20;99.90;;;;;;5033970;28;20521;-49
2022/04/23 02:01:05;;;;;;;19.73;14.68;;;11.30;99.90;;;;;;5033119;28;20034;-50
2022/04/23 02:03:32;;;;;;;17.90;12.65;;;11.20;99.90;;;;;;5034013;28;20045;-51
2022/04/23 02:05:58;;;;;;;19.63;14.65;;;11.20;99.90;;;;;;5049425;28;20037;-50
2022/04/23 02:08:23;;;;;;;18.38;15.02;;;11.30;99.90;;;;;;5027836;28;20521;-49
2022/04/23 02:10:49;;;;;;;19.77;14.88;;;11.30;99.90;;;;;;5032558;28;20038;-49
2022/04/23 02:13:15;;;;;;;21.42;14.80;;;11.20;99.90;;;;;;5034014;28;20116;-50
2022/04/23 02:15:40;;;;;;;16.70;11.80;;;11.20;99.90;;;;;;5033879;28;20037;-51
2022/04/23 02:18:06;;;;;;;19.30;14.57;;;11.20;99.90;;;;;;5025115;28;20415;-50
2022/04/23 02:20:32;;;;;;;18.88;13.43;;;11.40;99.90;;;;;;5013828;28;20060;-50
2022/04/23 02:22:58;;;;;;;22.60;13.77;;;11.30;99.90;;;;;;4996532;28;20409;-51
2022/04/23 02:25:24;;;;;;;19.23;14.20;;;11.20;99.90;;;;;;5028798;28;20125;-51
2022/04/23 02:27:50;;;;;;;18.63;14.13;;;11.10;99.90;;;;;;5032901;28;20069;-48
2022/04/23 02:30:21;;;;;;;21.60;15.50;;;11.10;99.90;;;;;;5033601;28;20490;-49
2022/04/23 02:32:47;;;;;;;19.52;14.15;;;11.10;99.90;;;;;;5035600;28;20064;-49
2022/04/23 02:35:15;;;;;;;18.40;14.60;;;11.10;99.90;;;;;;5023204;28;20127;-50
2022/04/23 02:37:44;;;;;;;17.08;13.75;;;11.10;99.90;;;;;;5040342;28;20065;-51
2022/04/23 02:40:10;;;;;;;17.48;12.70;;;11.10;99.90;;;;;;5039882;28;20116;-51
2022/04/23 02:42:37;;;;;;;20.10;15.02;;;11.10;99.90;;;;;;5045524;28;20064;-49
2022/04/23 02:45:06;;;;;;;19.83;13.82;;;11.00;99.90;;;;;;5051197;28;20498;-49
2022/04/23 02:47:50;;;;;;;18.77;13.13;;;11.10;99.90;;;;;;5052796;28;20067;-51
2022/04/23 02:50:24;;;;;;;18.35;13.48;;;11.10;99.90;;;;;;5032620;28;20117;-48
2022/04/23 02:52:50;;;;;;;17.55;12.85;;;11.10;99.90;;;;;;5029478;28;20048;-51
2022/04/23 02:55:15;;;;;;;19.45;14.15;;;11.00;99.90;;;;;;5045865;28;20045;-50
2022/04/23 02:57:41;;;;;;;17.05;13.07;;;11.00;99.90;;;;;;5026536;28;20382;-50
2022/04/23 03:00:08;;;;;;;17.90;14.38;;;10.90;99.90;;;;;;5052626;28;20076;-53
2022/04/23 03:02:36;;;;;;;18.17;14.27;;;10.90;99.90;;;;;;5025019;28;20040;-51
2022/04/23 03:05:05;;;;;;;17.63;13.40;;;10.80;99.90;;;;;;5032560;28;20040;-53
2022/04/23 03:07:32;;;;;;;18.10;13.07;;;10.70;99.90;;;;;;5032550;28;20034;-52
2022/04/23 03:09:58;;;;;;;17.58;12.68;;;10.70;99.90;;;;;;5032830;28;20060;-52
2022/04/23 03:12:24;;;;;;;19.63;13.70;;;10.70;99.90;;;;;;5032604;28;20499;-53
2022/04/23 03:14:49;;;;;;;17.02;13.30;;;10.60;99.90;;;;;;5032563;28;20111;-54
2022/04/23 03:17:15;;;;;;;16.45;12.48;;;10.60;99.90;;;;;;5034848;28;20586;-52
2022/04/23 03:19:41;;;;;;;21.50;12.77;;;10.50;99.90;;;;;;5038941;28;20037;-53
2022/04/23 03:22:06;;;;;;;16.65;13.43;;;10.60;99.90;;;;;;5052483;28;20401;-53
2022/04/23 03:24:32;;;;;;;18.00;12.85;;;10.50;99.90;;;;;;5052447;28;20036;-51
2022/04/23 03:26:57;;;;;;;15.95;11.80;;;10.50;99.90;;;;;;5052250;28;20037;-54
2022/04/23 03:29:23;;;;;;;16.10;12.30;;;10.40;99.90;;;;;;5052043;28;20037;-52
2022/04/23 03:31:50;;;;;;;18.42;12.50;;;10.40;99.90;;;;;;5042956;28;20094;-55
2022/04/23 03:34:18;;;;;;;15.82;11.50;;;10.40;99.90;;;;;;5040369;28;20556;-53
2022/04/23 03:36:43;;;;;;;16.25;12.52;;;10.30;99.90;;;;;;5044180;28;20026;-54
2022/04/23 03:39:09;;;;;;;15.88;10.98;;;10.30;99.90;;;;;;5050020;28;20549;-54
2022/04/23 03:41:34;;;;;;;15.98;11.43;;;10.30;99.90;;;;;;5052004;28;20048;-53
2022/04/23 03:44:00;;;;;;;18.52;12.70;;;10.40;99.90;;;;;;5051978;28;20033;-54
2022/04/23 03:46:26;;;;;;;18.45;12.82;;;10.30;99.90;;;;;;5034190;28;20095;-53
2022/04/23 03:48:51;;;;;;;19.38;12.50;;;10.20;99.90;;;;;;5031627;28;20037;-53
2022/04/23 03:51:17;;;;;;;17.60;11.57;;;10.20;99.90;;;;;;5039738;28;20032;-54
2022/04/23 03:53:42;;;;;;;17.17;12.05;;;10.20;99.90;;;;;;5043499;28;20040;-54
2022/04/23 03:56:09;;;;;;;13.98;10.60;;;10.30;99.90;;;;;;5051857;28;20044;-54
2022/04/23 03:58:35;;;;;;;16.33;12.38;;;10.20;99.90;;;;;;5051651;28;20144;-50
2022/04/23 04:01:01;;;;;;;18.30;12.35;;;10.20;99.90;;;;;;5039991;28;20029;-51
2022/04/23 04:03:27;;;;;;;17.08;12.45;;;10.20;99.90;;;;;;5034588;28;20021;-52
2022/04/23 04:05:53;;;;;;;16.10;11.38;;;10.10;99.90;;;;;;5043252;28;20033;-52
2022/04/23 04:08:19;;;;;;;15.63;11.70;;;10.00;99.90;;;;;;5033706;28;20044;-53
2022/04/23 04:10:45;;;;;;;17.25;11.43;;;10.10;99.90;;;;;;5051520;28;20068;-52
2022/04/23 04:13:10;;;;;;;16.42;12.00;;;10.10;99.90;;;;;;5049599;28;20037;-51
2022/04/23 04:15:37;;;;;;;15.88;11.50;;;10.20;99.90;;;;;;5031448;28;20033;-52
2022/04/23 04:18:03;;;;;;;16.35;11.20;;;10.10;99.90;;;;;;5031343;28;20041;-51
2022/04/23 04:20:32;;;;;;;17.63;11.93;;;10.10;99.90;;;;;;5045176;28;20140;-53
2022/04/23 04:22:57;;;;;;;15.07;11.50;;;10.10;99.90;;;;;;5048843;28;20045;-53
2022/04/23 04:25:23;;;;;;;17.02;11.93;;;10.10;99.90;;;;;;5039553;28;20041;-50
2022/04/23 04:27:49;;;;;;;14.52;11.27;;;10.00;99.90;;;;;;5030901;28;20049;-50
2022/04/23 04:30:15;;;;;;;15.43;11.52;;;10.10;99.90;;;;;;5031490;28;20514;-51
2022/04/23 04:32:41;;;;;;;15.98;11.73;;;10.00;99.90;;;;;;5031674;28;20434;-53
2022/04/23 04:35:08;;;;;;;14.32;11.57;;;10.00;99.90;;;;;;5046146;28;20087;-52
2022/04/23 04:37:34;;;;;;;16.60;11.82;;;10.00;99.90;;;;;;5045216;28;20055;-53
2022/04/23 04:39:59;;;;;;;14.70;10.15;;;10.00;99.90;;;;;;5040907;28;20407;-53
2022/04/23 04:42:25;;;;;;;16.90;10.75;;;10.10;99.90;;;;;;5030151;28;20041;-51
2022/04/23 04:44:51;;;;;;;14.35;11.27;;;10.10;99.90;;;;;;5013119;28;20029;-53
2022/04/23 04:47:16;;;;;;;14.20;11.35;;;10.10;99.90;;;;;;5011576;28;20041;-53
2022/04/23 04:49:42;;;;;;;14.38;10.63;;;10.00;99.90;;;;;;5037636;28;20056;-53
2022/04/23 04:52:08;;;;;;;16.58;11.35;;;10.00;99.90;;;;;;5046855;28;20051;-53
2022/04/23 04:54:34;;;;;;;13.23;9.82;;;10.00;99.90;;;;;;5040966;28;20042;-53
2022/04/23 04:57:02;;;;;;;13.18;10.65;;;10.00;99.90;;;;;;5035497;28;20048;-54
2022/04/23 04:59:29;;;;;;;14.95;10.52;;;10.20;99.90;;;;;;5034542;28;20679;-54
2022/04/23 05:01:54;;;;;;;15.95;10.95;;;10.00;99.90;;;;;;5035614;28;20043;-54
2022/04/23 05:04:21;;;;;;;14.50;9.30;;;10.00;99.90;;;;;;5047327;28;20413;-51
2022/04/23 05:06:47;;;;;;;14.32;10.70;;;10.00;99.90;;;;;;5048201;28;20037;-51
2022/04/23 05:09:12;;;;;;;14.63;10.20;;;9.90;99.90;;;;;;5042577;28;20513;-48
2022/04/23 05:11:38;;;;;;;13.85;10.32;;;9.90;99.90;;;;;;5034159;28;20029;-53
2022/04/23 05:14:03;;;;;;;12.40;9.30;;;9.90;99.90;;;;;;5033223;28;20538;-51
2022/04/23 05:16:29;;;;;;;14.07;9.88;;;10.00;99.90;;;;;;5040666;28;20447;-54
2022/04/23 05:18:54;;;;;;;13.95;10.40;;;10.00;99.90;;;;;;5043459;28;20041;-54
2022/04/23 05:21:20;;;;;;;13.68;9.88;;;10.00;99.90;;;;;;5053768;28;20128;-55
2022/04/23 05:23:46;;;;;;;12.60;10.10;;;10.00;99.90;;;;;;5050690;28;20033;-51
2022/04/23 05:26:11;;;;;;;12.23;9.05;;;10.00;99.90;;;;;;5032935;28;20110;-55
2022/04/23 05:28:39;;;;;;;13.15;9.70;;;10.10;99.90;;;;;;5024999;28;20038;-55
2022/04/23 05:31:05;;;;;;;11.88;9.98;;;10.20;99.90;;;;;;5030591;28;20515;-51
2022/04/23 05:33:30;;;;;;;12.75;9.00;;;10.10;99.90;;;;;;5033292;28;20045;-55
2022/04/23 05:35:56;;;;;;;11.63;8.68;;;10.10;99.90;;;;;;5033181;28;20041;-53
2022/04/23 05:38:22;;;;;;;13.27;9.00;;;10.20;99.90;;;;;;5032837;28;20052;-54
2022/04/23 05:40:48;;;;;;;11.77;8.50;;;10.30;99.90;;;;;;5032741;28;20356;-54
2022/04/23 05:43:14;;;;;;;11.50;8.02;;;10.30;99.90;;;;;;5032066;28;20081;-53
2022/04/23 05:45:40;;;;;;;11.50;9.02;;;10.40;99.90;;;;;;5040007;28;20040;-54
2022/04/23 05:48:06;;;;;;;11.50;8.15;;;10.30;99.90;;;;;;5035110;28;20450;-54
2022/04/23 05:50:31;;;;;;;12.00;8.88;;;10.40;99.90;;;;;;5034246;28;20065;-53
2022/04/23 05:52:57;;;;;;;10.60;8.40;;;10.50;99.90;;;;;;5034107;28;20095;-54
2022/04/23 05:55:22;;;;;;;10.48;8.27;;;10.70;99.90;;;;;;5040616;28;20041;-53
2022/04/23 05:57:48;;;;;;;10.20;7.57;;;10.80;99.90;;;;;;5013651;28;20399;-53
2022/04/23 06:00:15;;;;;;;10.30;6.28;;;10.90;99.90;;;;;;5033949;28;20116;-53
2022/04/23 06:02:40;;;;;;;12.85;8.43;;;11.00;99.90;;;;;;5032509;28;20038;-53
2022/04/23 06:05:06;;;;;;;11.15;8.63;;;11.10;99.90;;;;;;5034008;28;20052;-51
2022/04/23 06:07:33;;;;;;;11.23;8.40;;;11.20;99.90;;;;;;5029922;28;20204;-52
2022/04/23 06:09:59;;;;;;;10.65;8.50;;;11.20;99.90;;;;;;5036450;28;20041;-54
2022/04/23 06:12:25;;;;;;;12.80;7.85;;;11.30;99.90;;;;;;5033142;28;20042;-51
2022/04/23 06:14:50;;;;;;;11.35;8.98;;;11.30;99.90;;;;;;5032668;28;20041;-50
2022/04/23 06:17:26;;;;;;;12.00;8.48;;;11.30;99.90;;;;;;5032395;28;20091;-55
2022/04/23 06:19:52;;;;;;;12.82;8.70;;;11.30;99.90;;;;;;5030715;28;20041;-49
2022/04/23 06:22:19;;;;;;;11.90;8.07;;;11.50;99.90;;;;;;5036659;28;20120;-53
2022/04/23 06:24:45;;;;;;;13.43;9.43;;;11.40;99.90;;;;;;5032541;28;20034;-54
2022/04/23 06:27:11;;;;;;;13.68;9.40;;;11.30;99.90;;;;;;5037082;28;20033;-52
2022/04/23 06:29:40;;;;;;;14.70;9.60;;;11.20;99.90;;;;;;5035102;28;20028;-53
2022/04/23 06:32:10;;;;;;;11.95;8.27;;;11.10;99.90;;;;;;5014469;28;20095;-55
2022/04/23 06:34:37;;;;;;;11.20;7.85;;;11.10;99.80;;;;;;5013582;28;20051;-52
2022/04/23 06:37:03;;;;;;;14.57;10.27;;;11.20;99.70;;;;;;5035759;28;20832;-52
2022/04/23 06:39:29;;;;;;;15.35;9.70;;;11.20;99.60;;;;;;5017985;28;20034;-47
2022/04/23 06:41:54;;;;;;;10.45;7.28;;;11.30;99.40;;;;;;5034307;28;20392;-46
2022/04/23 06:44:20;;;;;;;12.45;9.90;;;11.30;98.90;;;;;;5065775;22;20047;-48
2022/04/23 06:46:45;;;;;;;15.48;8.80;;;11.30;99.30;;;;;;5026835;28;20033;-48
2022/04/23 06:49:11;;;;;;;12.25;8.48;;;11.30;99.10;;;;;;5047312;28;20045;-51
2022/04/23 06:51:37;;;;;;;17.17;10.60;;;11.30;98.90;;;;;;5046067;28;20040;-50
2022/04/23 06:54:03;;;;;;;14.77;10.35;;;11.20;99.30;;;;;;5040839;28;20033;-50
2022/04/23 06:56:30;;;;;;;12.63;8.50;;;11.30;99.30;;;;;;5030356;28;20384;-49
2022/04/23 06:58:56;;;;;;;16.27;9.73;;;11.50;98.60;;;;;;5015124;28;20083;-50
2022/04/23 07:01:22;;;;;;;13.20;10.15;;;11.50;99.10;;;;;;5023060;28;20141;-51
2022/04/23 07:03:48;;;;;;;13.45;10.55;;;11.50;98.80;;;;;;5030942;28;20041;-49
2022/04/23 07:06:15;;;;;;;14.57;10.90;;;11.60;98.90;;;;;;5031410;28;20091;-51
2022/04/23 07:08:44;;;;;;;13.48;10.30;;;11.70;98.90;;;;;;5029358;28;20259;-47
2022/04/23 07:11:13;;;;;;;14.65;10.85;;;11.80;98.60;;;;;;5026349;28;20119;-51
2022/04/23 07:13:38;;;;;;;12.93;9.30;;;11.90;98.00;;;;;;5029512;28;20499;-48
2022/04/23 07:16:09;;;;;;;16.30;9.98;;;12.00;97.70;;;;;;5032311;28;20041;-50
2022/04/23 07:18:35;;;;;;;17.27;10.00;;;12.10;97.60;;;;;;5032115;28;20536;-48
2022/04/23 07:21:00;;;;;;;18.33;11.70;;;12.10;96.70;;;;;;5031825;28;20049;-51
2022/04/23 07:26:11;;;;;;;16.92;8.63;;;12.10;97.10;;;;;;5032090;28;20103;-49
2022/04/23 07:28:37;;;;;;;17.02;10.60;;;12.30;96.80;;;;;;5031044;28;20076;-49
2022/04/23 07:31:03;;;;;;;31.20;13.48;;;12.30;95.90;;;;;;5032499;28;20037;-48
2022/04/23 07:38:57;;;;;;;18.23;11.52;;;12.50;95.70;;;;;;5028975;28;20485;-47
2022/04/23 07:41:23;;;;;;;16.67;11.60;;;12.70;95.10;;;;;;5032254;28;20025;-47
2022/04/23 07:43:48;;;;;;;15.63;10.65;;;12.70;94.70;;;;;;5031493;28;20116;-49
2022/04/23 07:46:14;;;;;;;16.45;11.95;;;12.70;94.70;;;;;;5031722;28;20136;-49
2022/04/23 07:48:39;;;;;;;15.98;11.40;;;12.70;94.60;;;;;;5031628;28;20052;-47
2022/04/23 07:51:05;;;;;;;17.88;11.05;;;12.80;94.30;;;;;;5031006;28;20038;-50
2022/04/23 07:53:31;;;;;;;13.85;8.02;;;12.90;93.50;;;;;;5031749;28;20033;-50
2022/04/23 07:55:56;;;;;;;16.02;10.10;;;13.10;92.80;;;;;;5027598;28;20104;-50
2022/04/23 07:58:22;;;;;;;18.38;11.98;;;13.00;92.70;;;;;;5031525;28;20502;-48
2022/04/23 08:00:48;;;;;;;17.17;12.32;;;13.00;92.50;;;;;;5031790;28;20380;-48
2022/04/23 08:03:14;;;;;;;15.40;10.00;;;13.10;93.00;;;;;;5013720;28;20038;-48
2022/04/23 08:05:39;;;;;;;18.85;10.82;;;13.20;92.80;;;;;;5030520;28;20040;-50
2022/04/23 08:08:05;;;;;;;16.52;10.95;;;13.30;92.20;;;;;;5029506;28;20407;-51
2022/04/23 08:10:31;;;;;;;13.80;8.80;;;13.40;91.80;;;;;;5030043;28;20064;-53
2022/04/23 08:12:57;;;;;;;14.52;11.20;;;13.50;91.20;;;;;;5014023;28;20053;-47
2022/04/23 08:15:23;;;;;;;15.38;10.55;;;13.60;91.70;;;;;;5030315;28;20116;-48
2022/04/23 08:17:48;;;;;;;19.60;12.15;;;13.70;91.10;;;;;;5029937;28;20475;-50
2022/04/23 08:20:14;;;;;;;15.82;10.48;;;13.70;91.30;;;;;;5029635;28;20033;-48
2022/04/23 08:22:40;;;;;;;16.25;10.57;;;13.80;89.60;;;;;;5031335;28;20038;-50
2022/04/23 08:25:06;;;;;;;14.55;10.35;;;13.90;88.10;;;;;;5030833;28;20403;-51
2022/04/23 08:27:52;;;;;;;18.80;11.93;;;13.90;88.70;;;;;;5029941;28;20044;-51
2022/04/23 08:30:34;;;;;;;16.58;10.68;;;14.00;88.20;;;;;;5030383;28;20449;-50
2022/04/23 08:33:02;;;;;;;78.27;17.67;;;14.10;89.40;;;;;;5030064;28;20041;-50
2022/04/23 08:35:27;;;;;;;18.83;11.60;;;14.30;88.50;;;;;;5029701;28;20056;-48
2022/04/23 08:37:53;;;;;;;16.92;11.63;;;14.40;84.30;;;;;;5031167;28;20045;-48
2022/04/23 08:40:19;;;;;;;15.07;10.50;;;14.40;83.20;;;;;;5031499;28;20222;-51
2022/04/23 08:42:44;;;;;;;16.45;10.18;;;14.40;84.20;;;;;;5031364;28;20041;-48
2022/04/23 08:45:12;;;;;;;13.25;8.35;;;14.50;84.30;;;;;;5031124;28;20041;-52
2022/04/23 08:47:46;;;;;;;14.75;10.20;;;14.60;83.40;;;;;;5029750;28;20080;-48
2022/04/23 08:50:13;;;;;;;14.93;10.45;;;14.70;82.60;;;;;;5030122;28;20046;-51
2022/04/23 08:52:42;;;;;;;18.70;9.35;;;14.80;80.60;;;;;;5031234;28;20033;-49
2022/04/23 08:55:08;;;;;;;14.30;10.32;;;14.80;80.10;;;;;;5031020;28;20041;-49
2022/04/23 08:57:38;;;;;;;15.73;10.15;;;14.90;81.20;;;;;;5029573;28;20041;-52
2022/04/23 09:00:08;;;;;;;18.25;11.02;;;14.90;80.60;;;;;;5031219;28;20053;-49
2022/04/23 09:02:35;;;;;;;13.38;8.57;;;14.90;80.50;;;;;;5028529;28;20049;-50
2022/04/23 09:05:02;;;;;;;16.33;9.20;;;15.10;77.60;;;;;;5030861;28;20491;-50
2022/04/23 09:07:29;;;;;;;15.68;10.60;;;15.10;78.30;;;;;;5030979;28;20049;-50
2022/04/23 09:09:56;;;;;;;16.38;10.38;;;15.10;76.50;;;;;;5031507;28;20041;-50
2022/04/23 09:12:24;;;;;;;15.20;10.27;;;15.10;77.80;;;;;;5031131;28;20048;-51
2022/04/23 09:14:50;;;;;;;14.02;8.73;;;15.10;78.00;;;;;;5030907;28;20041;-51
2022/04/23 09:25:44;;;;;;;18.48;9.85;;;15.30;73.80;;;;;;5030849;28;20056;-48
2022/04/23 09:28:22;;;;;;;17.42;11.15;;;15.30;73.60;;;;;;5030753;28;20045;-50
2022/04/23 09:30:56;;;;;;;12.90;10.70;;;15.40;73.80;;;;;;5029613;28;20403;-51
2022/04/23 09:33:28;;;;;;;13.70;10.02;;;15.30;74.70;;;;;;5023273;28;20049;-50
2022/04/23 09:35:58;;;;;;;19.20;9.80;;;15.40;75.80;;;;;;5030665;28;20044;-51
2022/04/23 09:38:25;;;;;;;14.23;10.95;;;15.50;73.40;;;;;;5033043;28;20041;-49
2022/04/23 09:40:56;;;;;;;13.80;8.77;;;15.50;73.60;;;;;;5034510;28;20065;-50
2022/04/23 09:43:29;;;;;;;17.38;10.32;;;15.60;72.20;;;;;;5055743;28;20096;-51
2022/04/23 09:46:03;;;;;;;17.95;11.13;;;15.70;71.50;;;;;;5037399;28;20036;-50
2022/04/23 09:48:30;;;;;;;15.10;10.60;;;15.70;72.10;;;;;;5033928;28;20049;-51
2022/04/23 09:50:56;;;;;;;16.30;11.57;;;15.60;70.80;;;;;;5034534;28;20116;-48
2022/04/23 09:53:22;;;;;;;17.83;11.90;;;15.70;70.60;;;;;;5034293;28;20041;-50
2022/04/23 09:55:51;;;;;;;14.57;11.25;;;15.60;72.40;;;;;;5034103;28;20038;-52
2022/04/23 09:58:16;;;;;;;15.00;10.95;;;15.60;71.10;;;;;;5032239;28;20033;-50
2022/04/23 10:00:47;;;;;;;20.90;11.60;;;15.60;72.20;;;;;;5033801;28;20090;-53
2022/04/23 10:03:13;;;;;;;13.75;10.50;;;15.70;70.90;;;;;;5034049;28;20029;-48
2022/04/23 10:05:46;;;;;;;17.27;11.07;;;15.80;70.90;;;;;;5034125;28;20033;-49
2022/04/23 10:08:17;;;;;;;16.02;11.07;;;15.80;70.60;;;;;;5033729;28;20041;-47
2022/04/23 10:10:52;;;;;;;15.80;11.82;;;15.90;70.70;;;;;;5033873;28;20041;-50
2022/04/23 10:13:18;;;;;;;16.30;12.00;;;16.00;70.50;;;;;;5032355;28;20080;-51
2022/04/23 10:15:46;;;;;;;15.48;11.82;;;16.10;70.40;;;;;;5033899;28;20481;-48
2022/04/23 10:18:12;;;;;;;15.98;11.48;;;16.10;69.70;;;;;;5033639;28;20060;-47
2022/04/23 10:20:40;;;;;;;15.90;11.70;;;16.20;67.00;;;;;;5033814;28;20030;-47
2022/04/23 10:23:40;;;;;;;16.92;11.43;;;16.10;69.20;;;;;;5034031;28;20065;-47
2022/04/23 10:26:38;;;;;;;19.10;11.65;;;16.20;70.50;;;;;;5032307;28;20053;-47
2022/04/23 10:29:09;;;;;;;16.95;11.23;;;16.30;71.30;;;;;;5015711;28;20033;-48
2022/04/23 10:31:35;;;;;;;14.98;11.15;;;16.50;68.80;;;;;;5033570;28;20041;-47
2022/04/23 10:34:00;;;;;;;16.48;11.88;;;16.70;66.30;;;;;;5033439;28;20045;-48
2022/04/23 10:36:27;;;;;;;15.45;12.02;;;16.70;66.80;;;;;;5015892;28;20467;-48
2022/04/23 10:39:21;;;;;;;16.30;10.75;;;16.60;67.20;;;;;;5031710;28;20128;-47
2022/04/23 10:41:46;;;;;;;16.38;11.98;;;16.70;67.10;;;;;;5031755;28;20034;-48
2022/04/23 10:44:12;;;;;;;18.25;11.05;;;16.60;64.90;;;;;;5030198;28;20037;-51
2022/04/23 10:46:38;;;;;;;15.20;11.65;;;16.60;64.10;;;;;;5033043;28;20445;-48
2022/04/23 10:49:20;;;;;;;19.63;13.30;;;16.50;66.60;;;;;;5032891;28;20037;-48
2022/04/23 10:51:56;;;;;;;16.20;11.95;;;16.50;65.80;;;;;;5033082;28;20069;-50
2022/04/23 10:54:40;;;;;;;18.25;11.45;;;16.50;66.20;;;;;;5033020;28;20099;-51
2022/04/23 10:57:10;;;;;;;17.40;10.80;;;16.60;63.40;;;;;;5031096;28;20038;-51
2022/04/23 10:59:48;;;;;;;16.55;11.02;;;16.50;63.60;;;;;;5032655;28;20120;-51
2022/04/23 11:02:14;;;;;;;16.00;12.27;;;16.50;64.90;;;;;;5032743;28;20088;-51
2022/04/23 11:12:14;;;;;;;13.25;9.98;;;16.50;64.60;;;;;;5032807;28;20149;-47
2022/04/23 11:13:23;;;;;;;15.95;12.25;;;16.70;66.30;;;;;;5031259;28;20403;-47
2022/04/23 11:16:08;;;;;;;14.90;12.00;;;16.90;63.80;;;;;;5032353;28;20034;-48
2022/04/23 11:18:34;;;;;;;14.52;10.68;;;16.90;63.00;;;;;;5014624;28;20049;-48
2022/04/23 11:21:24;;;;;;;15.38;11.88;;;17.00;62.20;;;;;;5032642;28;20092;-47
2022/04/23 11:23:51;;;;;;;22.40;11.48;;;17.00;62.60;;;;;;5032476;28;20040;-48
2022/04/23 11:26:28;;;;;;;14.80;11.13;;;17.10;61.00;;;;;;5030046;28;20045;-51
2022/04/23 11:29:00;;;;;;;14.52;12.57;;;17.10;61.40;;;;;;5014466;28;20045;-48
2022/04/23 11:31:26;;;;;;;15.98;10.82;;;17.00;61.90;;;;;;5031300;28;20041;-47
2022/04/23 11:33:57;;;;;;;15.52;12.35;;;17.00;60.90;;;;;;5030994;28;20037;-49
2022/04/23 11:36:28;;;;;;;18.63;12.02;;;17.00;61.40;;;;;;5014589;28;20124;-50
2022/04/23 11:38:59;;;;;;;15.17;12.23;;;17.00;60.00;;;;;;5031766;28;20050;-47
2022/04/23 11:41:35;;;;;;;16.20;10.25;;;16.90;61.30;;;;;;5031150;28;20284;-47
2022/04/23 11:44:14;;;;;;;14.75;9.43;;;17.00;59.40;;;;;;5029033;28;20045;-48
2022/04/23 11:46:44;;;;;;;15.65;11.02;;;17.10;58.20;;;;;;5030808;28;20099;-47
2022/04/23 11:49:22;;;;;;;14.68;11.00;;;17.00;60.60;;;;;;5031748;28;20056;-48
2022/04/23 11:51:48;;;;;;;16.50;11.18;;;16.80;61.30;;;;;;5032120;28;20041;-47
2022/04/23 11:54:13;;;;;;;18.42;11.70;;;17.00;59.30;;;;;;5031398;28;20541;-48
2022/04/23 11:56:44;;;;;;;17.05;11.90;;;17.10;60.00;;;;;;5030609;28;20037;-48
2022/04/23 11:59:11;;;;;;;15.52;11.85;;;17.10;60.20;;;;;;5031360;28;20038;-49
2022/04/23 12:01:38;;;;;;;20.00;11.52;;;17.20;60.60;;;;;;5031123;28;20048;-48
2022/04/23 12:04:04;;;;;;;16.63;11.73;;;17.30;60.10;;;;;;5031906;28;20130;-48
2022/04/23 12:06:44;;;;;;;16.67;11.55;;;17.20;59.30;;;;;;5031880;28;20112;-48
2022/04/23 12:09:11;;;;;;;14.40;9.75;;;17.30;59.30;;;;;;5030140;28;20052;-48
2022/04/23 12:11:37;;;;;;;14.55;11.23;;;17.40;56.80;;;;;;5030201;28;20076;-47
2022/04/23 12:14:03;;;;;;;13.90;8.80;;;17.40;58.10;;;;;;5031354;28;20061;-48
2022/04/23 12:16:40;;;;;;;15.13;9.68;;;17.50;56.20;;;;;;5030360;28;20041;-48
2022/04/23 12:19:12;;;;;;;18.38;11.55;;;17.50;56.40;;;;;;5046909;28;20041;-48
2022/04/23 12:21:39;;;;;;;13.27;10.63;;;17.40;58.30;;;;;;5013934;28;20057;-51
2022/04/23 12:24:07;;;;;;;12.13;9.70;;;17.40;56.70;;;;;;5031615;28;20065;-47
2022/04/23 12:26:38;;;;;;;14.50;10.40;;;17.50;56.40;;;;;;5029960;28;20040;-47
2022/04/23 12:43:32;;;;;;;11.60;8.98;;;17.60;55.10;;;;;;5031238;28;20106;-48
2022/04/23 12:46:08;;;;;;;10.68;8.20;;;17.60;56.20;;;;;;5017628;28;20124;-48
2022/04/23 12:49:00;;;;;;;13.13;7.75;;;17.70;52.80;;;;;;5030067;28;20124;-48
2022/04/23 12:51:26;;;;;;;17.23;8.77;;;17.70;52.60;;;;;;5031409;28;20072;-48
2022/04/23 12:53:52;;;;;;;13.75;7.85;;;17.70;52.40;;;;;;5045726;28;20519;-49
2022/04/23 12:56:19;;;;;;;13.60;8.35;;;17.70;53.10;;;;;;5031639;28;20113;-50
2022/04/23 12:58:45;;;;;;;9.95;7.40;;;17.70;54.20;;;;;;5031199;28;20069;-48
2022/04/23 13:01:12;;;;;;;11.32;7.35;;;17.80;53.50;;;;;;5027995;28;20046;-48
2022/04/23 13:03:43;;;;;;;10.38;7.10;;;17.90;52.50;;;;;;5031147;28;20060;-48
2022/04/23 13:08:56;;;;;;;9.63;7.05;;;18.10;50.80;;;;;;5030787;28;20474;-50
2022/04/23 13:11:29;;;;;;;11.27;6.70;;;18.00;50.70;;;;;;5031930;28;20044;-48
2022/04/23 13:14:04;;;;;;;9.68;6.43;;;18.00;51.70;;;;;;5045942;28;20116;-49
2022/04/23 13:16:32;;;;;;;13.25;8.10;;;18.10;51.20;;;;;;5034747;28;20045;-49